Racecast

Noah Colbert

Poudre (CO) · 12 · FRONT RANGECO D5A5A · Compare head to head

Athlete rating 119.3 2023 XC season
Best race 122.2 XC
Races 34
Seasons 3 2021 — 2023

RankedNation #16772·CO #507·CO D5A #307·FRONT RANGE #64·Team #7 ?

Speed rating — all races

Cross Country

XC speed rating

2023 XC 117.5

Poudre (CO) · Grade 12

Date Meet Event Result Place Rating Difficulty PR/SR Flags
2023-11-18 Coyote Run Golf Course at Leisure World 5000m 17:24.1 55th · 2nd on team 121.3 +0.029 ★CR CSR RSR
2023-10-19 Fairgrounds Park 5000m 18:20 32nd · 1st on team 117.9 +0.049 ★CR CSR
2023-09-22 Clement Park 5000m 18:07.5 106th · 3rd on team 117.0 +0.030 ★CR CSR
2023-09-16 Poudre Learning Center 5000m 17:09.1 13th · 4th on team 114.4 -0.047 ★PR ★CR SR CSR
2023-09-09 Heritage High School 5000m 17:29.2 63rd · 3rd on team 118.9 -0.001 PR ★CR SR CSR
2023-09-01 Julia deKoevend Park 5000m 19:04.7 107th · 2nd on team 114.6 +0.054 ★CR CSR
2023-08-26 Fort Collins High School 5000m 17:48 33rd · 2nd on team 116.4 +0.023 ★CR SR CSR
2023-08-19 Spring Canyon Park 5000m 18:03 26th · 1st on team 119.6 +0.037 ★CR SR CSR RSR

2022 XC 115.5

Poudre (CO) · Grade 11

Date Meet Event Result Place Rating Difficulty PR/SR Flags
2022-11-19 Coyote Run Golf Course at Leisure World 5000m 17:44.6 90th · 3rd on team 120.1 +0.029 CR CSR
2022-10-20 Margaret W. Carpenter Recreation Center 5000m 18:32 52nd · 4th on team 114.2 +0.014 ★CR CSR
2022-09-30 North Lake Park 5000m 17:36 10th · 1st on team 122.2 +0.041 PR ★CR ★R SR CSR RSR
2022-09-17 Lyons Middle/High School 5000m 18:51.3 141st · 4th on team 115.2 +0.046 ★CR CSR
2022-09-10 Heritage High School 5000m 18:05.4 80th · 5th on team 111.3 -0.001 PR CR SR CSR
2022-09-03 Little America Golf Course 5000m 19:10.4 97th · 4th on team 114.3 +0.064 ★CR CSR
2022-08-27 Fort Collins High School 5000m 18:26 46th · 3rd on team 115.4 +0.023 PR CR R SR CSR RSR
2022-08-20 Spring Canyon Park 5000m 19:17 55th · 3rd on team 110.9 +0.037 PR CR R SR CSR RSR

2021 XC 103.8

Poudre (CO) · Grade 10

Date Meet Event Result Place Rating Difficulty PR/SR Flags
2021-10-13 Adams County Regional Park 5000m 19:53.3 37th · 5th on team 110.0 +0.048 ★CR R CSR RSR
2021-10-08 Spring Canyon Park 5000m 19:53 52nd · 7th on team 108.9 +0.037 PR CR R SR CSR RSR
2021-10-02 Mead High School 5000m 20:21.9 9th · 2nd on team 104.2 +0.011 ★CR CSR
2021-09-24 Clement Park 5000m 20:23.7 23rd · 6th on team 105.4 +0.030 CR CSR
2021-09-17 North Lake Park 5000m 20:08 40th · 6th on team 107.5 +0.041 PR CR R SR CSR RSR
2021-09-10 Riverside Park 5000m 21:17.8 48th · 10th on team 100.5 +0.005 PR ★CR SR CSR
2021-09-03 Little America Golf Course 5000m 21:47.2 154th · 15th on team 101.7 +0.064 PR CR R SR CSR RSR
2021-08-28 Fort Collins High School 5000m 22:02 49th · 8th on team 97.7 +0.023 CR CSR
2021-08-21 Spring Canyon Park 5000m 22:02 46th · 6th on team 98.0 +0.037 PR CR R SR CSR RSR

Track & Field

TF speed rating

2023 TF 113.3

Poudre (CO) · Grade 11

Date Meet Event Result Place Rating Difficulty PR/SR Flags
2023-04-28 Liberty Bell Invitational 1600m 5:00.91 60th · 3rd on team 114.5 -0.015 ★PR SR RSR
2023-04-28 Liberty Bell Invitational 800m 2:14.61 65th · 3rd on team 115.0 -0.015 ★PR SR RSR
2023-04-28 Liberty Bell Invitational 3200m 10:55.73 50th · 1st on team 113.2 -0.015 ★PR SR
2023-04-15 Mountain Range Mustang Invitational 1600m 5:01.35 5th · 1st on team 114.4 -0.011 PR SR RSR
2023-04-15 Mountain Range Mustang Invitational 800m 2:15.89 17th · 2nd on team 113.9 -0.011 PR SR
2023-04-08 Hawk Invitational 1600m 5:04.21 28th · 2nd on team 113.5 -0.006 PR SR RSR
2023-04-01 Altitude Running Invitational 1600m 5:11.39 42nd · 3rd on team 110.8 -0.009 PR SR
2023-03-24 Runners Roost of Fort Collins Invitational 800m 2:19.07 43rd · 3rd on team 111.2 -0.011 PR SR RSR

2022 TF 95.3

Poudre (CO) · Grade 10

Date Meet Event Result Place Rating Difficulty PR/SR Flags
2022-04-12 Randy Yaussi City Championships 1600m 6:06.16 32nd · 7th on team 95.3 -0.009 PR SR RSR